createdAt,value
2019-03-24T00:01:41.014Z,76.50
2019-03-24T00:04:03.589Z,75.90
2019-03-24T00:06:32.151Z,74.50
2019-03-24T00:09:00.716Z,74.50
2019-03-24T00:11:29.250Z,74.60
2019-03-24T00:13:57.745Z,75.10
2019-03-24T00:16:26.247Z,73.90
2019-03-24T00:18:54.873Z,74.20
2019-03-24T00:21:23.448Z,74.10
2019-03-24T00:23:51.928Z,74.70
2019-03-24T00:26:20.400Z,74.60
2019-03-24T00:28:48.953Z,75.20
2019-03-24T00:31:17.441Z,75.20
2019-03-24T00:33:46.003Z,75.20
2019-03-24T00:36:14.551Z,74.70
2019-03-24T00:38:43.045Z,75.00
2019-03-24T00:41:11.617Z,74.80
2019-03-24T00:43:40.122Z,74.80
2019-03-24T00:46:08.608Z,74.50
2019-03-24T00:48:37.168Z,74.20
2019-03-24T00:51:07.268Z,74.80
2019-03-24T00:53:35.771Z,75.00
2019-03-24T00:56:04.347Z,74.30
2019-03-24T00:58:32.920Z,74.50
2019-03-24T01:01:01.389Z,74.30
2019-03-24T01:03:29.909Z,74.30
2019-03-24T01:05:58.486Z,74.60
2019-03-24T01:08:27.077Z,74.20
2019-03-24T01:10:55.628Z,74.00
2019-03-24T01:13:24.201Z,74.30
2019-03-24T01:15:52.719Z,74.40
2019-03-24T01:18:21.215Z,74.30
2019-03-24T01:20:49.733Z,74.90
2019-03-24T01:23:18.235Z,74.90
2019-03-24T01:25:46.725Z,75.70
2019-03-24T01:28:15.264Z,75.40
2019-03-24T01:30:43.882Z,75.20
2019-03-24T01:33:12.373Z,75.40
2019-03-24T01:35:40.879Z,75.40
2019-03-24T01:38:09.435Z,75.30
2019-03-24T01:40:37.997Z,75.40
2019-03-24T01:43:06.461Z,75.10
2019-03-24T01:45:34.964Z,75.60
2019-03-24T01:48:03.620Z,75.30
2019-03-24T01:50:32.144Z,75.40
2019-03-24T01:53:00.679Z,75.40
2019-03-24T01:55:29.182Z,75.30
2019-03-24T01:57:57.676Z,75.40
2019-03-24T02:00:26.246Z,75.40
2019-03-24T02:02:54.820Z,75.10
2019-03-24T02:05:23.372Z,75.50
2019-03-24T02:07:51.839Z,75.70
2019-03-24T02:10:20.484Z,75.30
2019-03-24T02:12:49.019Z,75.00
2019-03-24T02:15:17.617Z,75.80
2019-03-24T02:17:46.106Z,75.90
2019-03-24T02:20:14.957Z,75.80
2019-03-24T02:22:43.433Z,75.50
2019-03-24T02:25:12.368Z,76.10
2019-03-24T02:27:40.940Z,75.50
2019-03-24T02:30:09.977Z,75.90
2019-03-24T02:32:38.470Z,75.70
2019-03-24T02:35:08.127Z,75.60
2019-03-24T02:37:36.781Z,75.80
2019-03-24T02:40:07.088Z,75.90
2019-03-24T02:42:35.666Z,76.10
2019-03-24T02:45:06.176Z,75.20
2019-03-24T02:47:34.660Z,75.50
2019-03-24T02:50:03.223Z,75.20
2019-03-24T02:52:31.702Z,75.20
2019-03-24T02:55:00.475Z,75.30
2019-03-24T02:57:29.145Z,75.00
2019-03-24T02:59:57.734Z,75.10
2019-03-24T03:02:26.215Z,75.10
2019-03-24T03:04:54.732Z,74.80
2019-03-24T03:07:23.209Z,74.70
2019-03-24T03:09:51.752Z,75.00
2019-03-24T03:12:20.306Z,74.90
2019-03-24T03:14:48.833Z,74.80
2019-03-24T03:17:17.479Z,74.90
2019-03-24T03:19:45.995Z,74.80
2019-03-24T03:22:14.620Z,74.80
2019-03-24T03:24:43.167Z,74.90
2019-03-24T03:27:11.739Z,74.90
2019-03-24T03:29:40.312Z,74.70
2019-03-24T03:32:08.905Z,74.90
2019-03-24T03:34:37.469Z,74.90
2019-03-24T03:37:06.155Z,74.90
2019-03-24T03:39:34.737Z,74.70
2019-03-24T03:42:03.312Z,74.90
2019-03-24T03:44:31.879Z,74.80
2019-03-24T03:47:00.565Z,75.10
2019-03-24T03:49:29.115Z,75.00
2019-03-24T03:51:57.608Z,75.10
2019-03-24T03:54:26.191Z,76.40
2019-03-24T03:56:54.817Z,75.10
2019-03-24T03:59:23.371Z,76.10
2019-03-24T04:01:51.947Z,76.40
2019-03-24T04:04:20.434Z,75.60
2019-03-24T04:06:49.026Z,76.40
2019-03-24T04:09:17.527Z,75.60
2019-03-24T04:11:46.114Z,75.40
2019-03-24T04:14:14.651Z,75.50
2019-03-24T04:16:43.246Z,75.50
2019-03-24T04:19:11.825Z,75.90
2019-03-24T04:21:40.382Z,75.60
2019-03-24T04:24:08.935Z,75.70
2019-03-24T04:26:37.507Z,75.70
2019-03-24T04:29:06.063Z,75.30
2019-03-24T04:31:34.588Z,75.60
2019-03-24T04:34:03.164Z,76.20
2019-03-24T04:36:31.752Z,75.70
2019-03-24T04:39:00.242Z,75.50
2019-03-24T04:41:28.857Z,75.80
2019-03-24T04:43:57.394Z,75.90
2019-03-24T04:46:26.001Z,76.60
2019-03-24T04:48:54.578Z,77.90
2019-03-24T04:51:23.134Z,78.30
2019-03-24T04:53:51.644Z,78.30
2019-03-24T04:56:20.310Z,77.80
2019-03-24T04:58:48.853Z,78.10
2019-03-24T05:01:17.381Z,78.40
2019-03-24T05:03:45.873Z,78.10
2019-03-24T05:06:14.509Z,79.80
2019-03-24T05:08:44.056Z,78.20
2019-03-24T05:11:12.705Z,77.80
2019-03-24T05:13:41.207Z,77.80
2019-03-24T05:16:09.755Z,77.80
2019-03-24T05:18:38.415Z,78.10
2019-03-24T05:21:06.962Z,78.20
2019-03-24T05:23:35.615Z,78.60
2019-03-24T05:26:04.160Z,77.70
2019-03-24T05:28:32.818Z,78.00
2019-03-24T05:31:01.353Z,78.10
2019-03-24T05:33:29.872Z,78.90
2019-03-24T05:35:58.423Z,79.20
2019-03-24T05:38:26.994Z,79.30
2019-03-24T05:40:55.501Z,78.10
2019-03-24T05:43:24.090Z,78.10
2019-03-24T05:45:52.584Z,78.40
2019-03-24T05:48:21.084Z,78.40
2019-03-24T05:50:49.663Z,77.40
2019-03-24T05:53:18.152Z,78.10
2019-03-24T05:55:46.659Z,77.10
2019-03-24T05:58:15.157Z,77.80
2019-03-24T06:00:43.725Z,77.60
2019-03-24T06:03:12.231Z,77.40
2019-03-24T06:05:40.770Z,77.60
2019-03-24T06:08:09.485Z,77.20
2019-03-24T06:10:57.362Z,77.90
2019-03-24T06:13:25.960Z,77.80
2019-03-24T06:15:54.499Z,77.80
2019-03-24T06:18:23.019Z,78.00
2019-03-24T06:20:51.593Z,77.10
2019-03-24T06:23:20.104Z,76.70
2019-03-24T06:25:48.638Z,76.70
2019-03-24T06:28:17.223Z,76.90
2019-03-24T06:30:45.694Z,76.60
2019-03-24T06:33:14.272Z,76.10
2019-03-24T06:35:42.772Z,75.30
2019-03-24T06:38:11.308Z,75.40
2019-03-24T06:40:39.892Z,75.10
2019-03-24T06:43:08.447Z,74.90
2019-03-24T06:45:40.572Z,73.50
2019-03-24T06:48:10.368Z,72.30
2019-03-24T06:50:38.853Z,71.00
2019-03-24T06:53:07.469Z,70.10
2019-03-24T06:55:36.085Z,71.70
2019-03-24T06:58:04.635Z,68.20
2019-03-24T07:00:33.147Z,71.10
2019-03-24T07:03:01.665Z,64.90
2019-03-24T07:05:30.330Z,65.40
2019-03-24T07:07:58.921Z,66.00
2019-03-24T07:10:27.494Z,62.50
2019-03-24T07:12:56.065Z,62.30
2019-03-24T07:15:24.799Z,60.90
2019-03-24T07:17:53.370Z,59.90
2019-03-24T07:20:21.939Z,61.60
2019-03-24T07:22:50.452Z,56.90
2019-03-24T07:25:19.019Z,56.80
2019-03-24T07:27:47.550Z,56.50
2019-03-24T07:30:16.268Z,57.00
2019-03-24T07:32:44.814Z,56.80
2019-03-24T07:35:13.410Z,56.60
2019-03-24T07:37:41.988Z,57.00
2019-03-24T07:40:11.020Z,55.50
2019-03-24T07:42:39.676Z,54.70
2019-03-24T07:45:08.435Z,55.20
2019-03-24T07:47:36.995Z,53.60
2019-03-24T07:50:07.367Z,54.90
2019-03-24T07:52:35.927Z,55.50
2019-03-24T07:55:06.118Z,53.70
2019-03-24T07:57:34.631Z,52.80
2019-03-24T08:00:03.340Z,51.20
2019-03-24T08:02:31.931Z,51.10
2019-03-24T08:05:00.515Z,51.60
2019-03-24T08:07:29.090Z,50.70
2019-03-24T08:09:57.642Z,49.90
2019-03-24T08:12:26.231Z,49.40
2019-03-24T08:14:54.732Z,50.00
2019-03-24T08:17:23.325Z,51.80
2019-03-24T08:19:51.892Z,50.10
2019-03-24T08:22:20.561Z,49.20
2019-03-24T08:24:49.138Z,49.30
2019-03-24T08:27:17.665Z,48.40
2019-03-24T08:29:46.155Z,49.50
2019-03-24T08:32:14.738Z,48.90
2019-03-24T08:34:43.320Z,49.40
2019-03-24T08:37:11.929Z,47.50
2019-03-24T08:39:40.496Z,47.90
2019-03-24T08:42:09.023Z,46.70
2019-03-24T08:44:37.555Z,48.10
2019-03-24T08:47:06.099Z,46.80
2019-03-24T08:49:34.674Z,44.90
2019-03-24T08:52:03.264Z,44.60
2019-03-24T08:54:31.883Z,45.70
2019-03-24T08:57:00.389Z,45.30
2019-03-24T08:59:28.938Z,46.30
2019-03-24T09:01:57.475Z,44.70
2019-03-24T09:04:26.000Z,44.30
2019-03-24T09:06:54.590Z,45.50
2019-03-24T09:09:23.164Z,44.30
2019-03-24T09:11:51.736Z,43.90
2019-03-24T09:14:20.314Z,44.20
2019-03-24T09:16:48.919Z,43.70
2019-03-24T09:19:17.537Z,41.20
2019-03-24T09:21:46.129Z,41.80
2019-03-24T09:24:14.740Z,41.20
2019-03-24T09:26:43.333Z,41.00
2019-03-24T09:29:11.941Z,42.30
2019-03-24T09:31:40.519Z,43.40
2019-03-24T09:34:09.156Z,41.90
2019-03-24T09:36:37.740Z,42.10
2019-03-24T09:39:06.630Z,41.10
2019-03-24T09:41:35.225Z,41.80
2019-03-24T09:44:03.789Z,41.50
2019-03-24T09:46:32.313Z,41.20
2019-03-24T09:49:03.425Z,40.00
2019-03-24T09:51:31.049Z,40.40
2019-03-24T09:53:59.615Z,41.40
2019-03-24T09:56:28.261Z,38.80
2019-03-24T09:58:56.828Z,39.00
2019-03-24T10:01:25.425Z,38.20
2019-03-24T10:03:53.987Z,40.30
2019-03-24T10:06:22.647Z,37.50
2019-03-24T10:08:51.203Z,37.00
2019-03-24T10:11:19.816Z,38.20
2019-03-24T10:13:48.304Z,33.30
2019-03-24T10:16:16.922Z,36.00
2019-03-24T10:18:45.502Z,31.80
2019-03-24T10:21:14.086Z,32.50
2019-03-24T10:23:42.651Z,35.20
2019-03-24T10:26:11.261Z,33.30
2019-03-24T10:28:39.877Z,35.90
2019-03-24T10:31:08.445Z,32.40
2019-03-24T10:33:37.114Z,34.90
2019-03-24T10:36:05.667Z,34.10
2019-03-24T10:38:34.235Z,33.60
2019-03-24T10:41:02.794Z,33.50
2019-03-24T10:43:31.313Z,33.80
2019-03-24T10:45:59.876Z,32.00
2019-03-24T10:48:33.611Z,32.70
2019-03-24T10:50:58.790Z,31.20
2019-03-24T10:53:27.319Z,32.50
2019-03-24T10:55:55.879Z,28.00
2019-03-24T10:58:24.447Z,26.00
2019-03-24T11:00:52.985Z,28.30
2019-03-24T11:03:21.579Z,25.00
2019-03-24T11:05:50.135Z,25.70
2019-03-24T11:08:18.768Z,24.50
2019-03-24T11:10:47.442Z,27.30
2019-03-24T11:13:16.006Z,25.00
2019-03-24T11:15:44.572Z,23.00
2019-03-24T11:18:13.118Z,23.90
2019-03-24T11:20:41.699Z,26.10
2019-03-24T11:23:10.274Z,21.70
2019-03-24T11:25:38.837Z,21.30
2019-03-24T11:28:07.460Z,25.10
2019-03-24T11:30:36.051Z,24.60
2019-03-24T11:33:04.743Z,22.40
2019-03-24T11:35:33.339Z,23.00
2019-03-24T11:38:01.956Z,22.10
2019-03-24T11:40:30.554Z,23.40
2019-03-24T11:42:59.203Z,22.60
2019-03-24T11:45:27.800Z,22.10
2019-03-24T11:47:56.381Z,20.80
2019-03-24T11:50:24.967Z,21.80
2019-03-24T11:52:53.462Z,22.90
2019-03-24T11:55:22.146Z,24.00
2019-03-24T11:57:51.604Z,24.50
2019-03-24T12:00:25.082Z,23.90
2019-03-24T12:02:53.663Z,25.10
2019-03-24T12:05:22.280Z,26.30
2019-03-24T12:07:51.122Z,25.40
2019-03-24T12:10:19.995Z,26.20
2019-03-24T12:12:48.635Z,25.10
2019-03-24T12:15:17.531Z,24.90
2019-03-24T12:17:46.120Z,25.20
2019-03-24T12:20:14.803Z,26.30
2019-03-24T12:22:43.435Z,26.70
2019-03-24T12:25:12.014Z,26.20
2019-03-24T12:27:40.593Z,26.50
2019-03-24T12:30:10.830Z,25.70
2019-03-24T12:32:39.508Z,26.50
2019-03-24T12:35:08.620Z,27.50
2019-03-24T12:37:37.275Z,27.10
2019-03-24T12:40:08.979Z,27.30
2019-03-24T12:42:38.004Z,27.00
2019-03-24T12:45:10.671Z,26.80
2019-03-24T12:47:39.266Z,26.80
2019-03-24T12:50:10.466Z,26.80
2019-03-24T12:52:39.112Z,26.90
2019-03-24T12:55:08.233Z,26.00
2019-03-24T12:57:36.874Z,26.70
2019-03-24T13:00:11.010Z,27.50
2019-03-24T13:02:39.831Z,27.50
2019-03-24T13:05:10.303Z,28.10
2019-03-24T13:07:40.479Z,27.60
2019-03-24T13:10:11.802Z,26.70
2019-03-24T13:12:41.572Z,26.10
2019-03-24T13:15:10.573Z,27.50
2019-03-24T13:17:39.240Z,26.10
2019-03-24T13:20:19.534Z,27.00
2019-03-24T13:22:38.499Z,26.70
2019-03-24T13:25:07.756Z,26.80
2019-03-24T13:27:36.325Z,27.80
2019-03-24T13:30:07.749Z,27.40
2019-03-24T13:32:36.744Z,28.20
2019-03-24T13:35:06.021Z,27.40
2019-03-24T13:37:34.810Z,26.90
2019-03-24T13:40:04.164Z,28.00
2019-03-24T13:42:32.851Z,28.70
2019-03-24T13:45:20.739Z,29.70
2019-03-24T13:47:49.371Z,29.70
2019-03-24T13:50:18.542Z,28.90
2019-03-24T13:52:47.367Z,29.00
2019-03-24T13:55:16.281Z,28.80
2019-03-24T13:57:44.986Z,30.40
2019-03-24T14:00:15.520Z,29.40
2019-03-24T14:02:44.267Z,30.30
2019-03-24T14:05:12.800Z,30.50
2019-03-24T14:07:41.774Z,30.10
2019-03-24T14:10:13.548Z,30.10
2019-03-24T14:12:42.900Z,30.40
2019-03-24T14:15:12.204Z,30.60
2019-03-24T14:17:41.269Z,30.50
2019-03-24T14:20:10.369Z,31.60
2019-03-24T14:22:38.932Z,31.40
2019-03-24T14:25:08.459Z,31.20
2019-03-24T14:27:37.318Z,31.30
2019-03-24T14:30:10.271Z,31.90
2019-03-24T14:32:39.133Z,31.70
2019-03-24T14:35:08.955Z,31.70
2019-03-24T14:37:37.653Z,31.40
2019-03-24T14:40:07.695Z,32.00
2019-03-24T14:42:36.375Z,31.70
2019-03-24T14:45:07.527Z,31.60
2019-03-24T14:47:38.118Z,31.90
2019-03-24T14:50:07.441Z,31.80
2019-03-24T14:52:36.043Z,32.10
2019-03-24T14:55:05.817Z,32.00
2019-03-24T14:57:34.688Z,32.70
2019-03-24T15:00:11.102Z,32.90
2019-03-24T15:02:36.927Z,31.90
2019-03-24T15:05:07.154Z,31.80
2019-03-24T15:07:35.910Z,31.30
2019-03-24T15:10:06.628Z,31.20
2019-03-24T15:12:35.291Z,31.40
2019-03-24T15:15:07.431Z,31.80
2019-03-24T15:17:36.531Z,31.50
2019-03-24T15:20:10.797Z,31.60
2019-03-24T15:22:39.426Z,30.80
2019-03-24T15:25:08.094Z,30.50
2019-03-24T15:27:36.689Z,30.50
2019-03-24T15:30:07.081Z,31.30
2019-03-24T15:32:35.769Z,31.50
2019-03-24T15:35:06.383Z,31.80
2019-03-24T15:37:35.065Z,32.10
2019-03-24T15:40:04.717Z,32.10
2019-03-24T15:42:37.978Z,32.20
2019-03-24T15:45:05.539Z,32.70
2019-03-24T15:47:34.121Z,32.20
2019-03-24T15:50:02.791Z,31.30
2019-03-24T15:52:31.477Z,31.80
2019-03-24T15:55:01.033Z,31.80
2019-03-24T15:57:30.690Z,31.40
2019-03-24T15:59:59.285Z,31.80
2019-03-24T16:02:27.923Z,31.80
2019-03-24T16:04:56.547Z,32.10
2019-03-24T16:07:25.163Z,32.20
2019-03-24T16:09:53.798Z,32.70
2019-03-24T16:12:22.526Z,32.20
2019-03-24T16:14:51.082Z,32.20
2019-03-24T16:17:19.740Z,32.10
2019-03-24T16:19:48.462Z,32.70
2019-03-24T16:22:17.462Z,32.90
2019-03-24T16:24:46.092Z,33.00
2019-03-24T16:27:15.802Z,34.30
2019-03-24T16:29:44.499Z,34.50
2019-03-24T16:32:13.473Z,35.90
2019-03-24T16:34:42.093Z,37.20
2019-03-24T16:37:10.976Z,37.90
2019-03-24T16:39:39.595Z,37.70
2019-03-24T16:42:08.331Z,38.20
2019-03-24T16:44:36.951Z,38.80
2019-03-24T16:47:05.542Z,38.80
2019-03-24T16:49:34.238Z,39.50
2019-03-24T16:52:02.864Z,39.80
2019-03-24T16:54:31.481Z,39.60
2019-03-24T16:57:00.145Z,40.40
2019-03-24T16:59:28.879Z,40.40
2019-03-24T17:01:57.795Z,41.00
2019-03-24T17:04:26.484Z,40.50
2019-03-24T17:06:55.095Z,41.50
2019-03-24T17:09:24.279Z,41.10
2019-03-24T17:11:53.000Z,40.90
2019-03-24T17:14:21.728Z,40.80
2019-03-24T17:16:50.647Z,40.50
2019-03-24T17:19:19.400Z,40.40
2019-03-24T17:21:50.399Z,40.90
2019-03-24T17:24:19.465Z,41.20
2019-03-24T17:26:48.035Z,41.80
2019-03-24T17:29:16.818Z,41.70
2019-03-24T17:31:45.411Z,41.80
2019-03-24T17:34:15.323Z,42.80
2019-03-24T17:36:45.614Z,42.10
2019-03-24T17:39:16.164Z,42.20
2019-03-24T17:41:44.834Z,42.30
2019-03-24T17:44:13.535Z,42.80
2019-03-24T17:46:42.260Z,42.40
2019-03-24T17:49:10.868Z,42.90
2019-03-24T17:51:47.134Z,43.10
2019-03-24T17:54:15.814Z,42.90
2019-03-24T17:57:37.862Z,42.80
2019-03-24T18:00:09.545Z,43.00
2019-03-24T18:02:38.216Z,43.20
2019-03-24T18:05:08.202Z,43.20
2019-03-24T18:07:37.076Z,43.60
2019-03-24T18:10:07.251Z,43.80
2019-03-24T18:12:37.108Z,43.70
2019-03-24T18:15:08.334Z,44.10
2019-03-24T18:17:36.996Z,44.70
2019-03-24T18:20:07.304Z,45.00
2019-03-24T18:22:35.943Z,45.30
2019-03-24T18:25:07.276Z,45.50
2019-03-24T18:27:36.004Z,46.00
2019-03-24T18:30:07.842Z,45.80
2019-03-24T18:32:37.158Z,46.00
2019-03-24T18:35:09.177Z,46.20
2019-03-24T18:37:38.317Z,46.00
2019-03-24T18:40:09.324Z,46.20
2019-03-24T18:42:38.359Z,46.60
2019-03-24T18:45:11.807Z,46.60
2019-03-24T18:47:40.695Z,46.80
2019-03-24T18:50:10.580Z,46.60
2019-03-24T18:52:39.973Z,46.80
2019-03-24T18:55:10.913Z,47.70
2019-03-24T18:57:39.490Z,47.40
2019-03-24T19:00:13.207Z,47.30
2019-03-24T19:02:42.771Z,47.60
2019-03-24T19:05:11.834Z,47.50
2019-03-24T19:07:40.488Z,47.40
2019-03-24T19:10:11.261Z,47.40
2019-03-24T19:12:41.407Z,47.70
2019-03-24T19:15:13.959Z,47.80
2019-03-24T19:17:43.865Z,48.00
2019-03-24T19:20:13.197Z,48.10
2019-03-24T19:22:42.298Z,48.60
2019-03-24T19:25:12.957Z,48.40
2019-03-24T19:27:41.561Z,48.60
2019-03-24T19:30:15.266Z,48.80
2019-03-24T19:32:45.286Z,49.00
2019-03-24T19:35:15.782Z,49.20
2019-03-24T19:37:46.563Z,49.20
2019-03-24T19:40:29.495Z,49.90
2019-03-24T19:42:58.227Z,50.00
2019-03-24T19:45:27.148Z,49.90
2019-03-24T19:47:57.305Z,50.50
2019-03-24T19:50:27.052Z,50.30
2019-03-24T19:52:59.894Z,50.70
2019-03-24T19:55:28.541Z,51.00
2019-03-24T19:57:57.428Z,50.90
2019-03-24T20:00:26.209Z,51.70
2019-03-24T20:02:58.087Z,51.20
2019-03-24T20:05:28.190Z,51.80
2019-03-24T20:07:57.700Z,52.10
2019-03-24T20:10:26.365Z,51.80
2019-03-24T20:12:55.958Z,51.70
2019-03-24T20:15:24.600Z,51.50
2019-03-24T20:17:54.367Z,51.80
2019-03-24T20:20:23.050Z,52.40
2019-03-24T20:22:56.818Z,52.20
2019-03-24T20:25:22.979Z,52.30
2019-03-24T20:27:52.724Z,53.20
2019-03-24T20:30:21.395Z,52.50
2019-03-24T20:32:52.066Z,53.00
2019-03-24T20:35:20.680Z,52.90
2019-03-24T20:37:49.361Z,53.70
2019-03-24T20:40:19.869Z,53.40
2019-03-24T20:42:48.502Z,53.50
2019-03-24T20:45:17.449Z,53.50
2019-03-24T20:47:46.104Z,53.80
2019-03-24T20:50:15.623Z,53.90
2019-03-24T20:52:46.634Z,53.90
2019-03-24T20:55:16.831Z,53.50
2019-03-24T20:57:45.437Z,54.00
2019-03-24T21:00:14.442Z,54.00
2019-03-24T21:02:43.260Z,54.10
2019-03-24T21:05:11.986Z,54.60
2019-03-24T21:07:40.630Z,55.00
2019-03-24T21:10:09.637Z,54.50
2019-03-24T21:12:38.313Z,54.60
2019-03-24T21:15:11.205Z,54.50
2019-03-24T21:17:38.919Z,54.40
2019-03-24T21:20:08.510Z,54.70
2019-03-24T21:22:37.078Z,55.10
2019-03-24T21:25:07.035Z,55.50
2019-03-24T21:27:35.635Z,55.20
2019-03-24T21:30:08.390Z,55.80
2019-03-24T21:32:36.785Z,55.00
2019-03-24T21:35:06.596Z,55.00
2019-03-24T21:37:35.231Z,55.20
2019-03-24T21:40:06.359Z,55.30
2019-03-24T21:42:35.157Z,55.70
2019-03-24T21:45:07.497Z,55.60
2019-03-24T21:47:36.059Z,55.20
2019-03-24T21:50:06.627Z,55.90
2019-03-24T21:52:35.206Z,55.80
2019-03-24T21:55:04.253Z,55.80
2019-03-24T21:57:32.755Z,56.40
2019-03-24T22:00:01.418Z,56.40
2019-03-24T22:02:29.960Z,55.90
2019-03-24T22:04:58.481Z,56.40
2019-03-24T22:07:27.130Z,55.70
2019-03-24T22:09:55.702Z,55.90
2019-03-24T22:12:24.233Z,56.20
2019-03-24T22:14:52.875Z,56.50
2019-03-24T22:17:21.460Z,56.40
2019-03-24T22:19:50.002Z,57.10
2019-03-24T22:22:18.627Z,56.40
2019-03-24T22:24:47.172Z,56.90
2019-03-24T22:27:15.853Z,57.40
2019-03-24T22:29:44.433Z,56.30
2019-03-24T22:32:12.976Z,57.10
2019-03-24T22:34:41.494Z,57.10
2019-03-24T22:37:15.718Z,56.90
2019-03-24T22:39:40.245Z,57.60
2019-03-24T22:42:08.726Z,57.60
2019-03-24T22:44:37.290Z,57.70
2019-03-24T22:47:05.887Z,57.20
2019-03-24T22:49:34.429Z,57.80
2019-03-24T22:52:07.389Z,58.40
2019-03-24T22:54:33.283Z,58.10
2019-03-24T22:57:01.913Z,58.40
2019-03-24T22:59:30.501Z,58.30
2019-03-24T23:01:59.149Z,58.70
2019-03-24T23:04:27.701Z,58.30
2019-03-24T23:06:56.247Z,58.80
2019-03-24T23:09:24.748Z,59.20
2019-03-24T23:11:53.333Z,59.30
2019-03-24T23:14:24.944Z,60.00
2019-03-24T23:16:53.551Z,59.50
2019-03-24T23:19:22.061Z,59.80
2019-03-24T23:21:50.657Z,60.70
2019-03-24T23:24:19.226Z,60.20
2019-03-24T23:26:47.724Z,59.90
2019-03-24T23:29:16.279Z,60.40
2019-03-24T23:31:44.782Z,60.60
2019-03-24T23:34:13.278Z,59.80
2019-03-24T23:36:41.779Z,60.10
2019-03-24T23:39:10.246Z,60.60
2019-03-24T23:41:38.828Z,60.00
2019-03-24T23:44:07.423Z,59.70
2019-03-24T23:46:35.989Z,60.10
2019-03-24T23:49:04.534Z,61.30
2019-03-24T23:51:33.070Z,60.90
2019-03-24T23:54:01.635Z,61.60
2019-03-24T23:56:30.203Z,61.50
2019-03-24T23:58:58.735Z,62.60
